createdAt,value
2023-03-03T00:08:29.117Z,99868.38
2023-03-03T00:18:35.869Z,99850.59
2023-03-03T00:28:48.360Z,99843.02
2023-03-03T00:38:54.860Z,99823.64
2023-03-03T00:48:59.481Z,99820.81
2023-03-03T00:59:05.067Z,99809.27
2023-03-03T01:09:10.967Z,99801.83
2023-03-03T01:19:16.739Z,99798.42
2023-03-03T01:29:22.401Z,99794.80
2023-03-03T01:39:28.568Z,99786.20
2023-03-03T01:49:39.108Z,99783.02
2023-03-03T01:59:50.535Z,99778.68
2023-03-03T02:10:00.535Z,99778.66
2023-03-03T02:20:14.383Z,99778.83
2023-03-03T02:30:25.665Z,99765.23
2023-03-03T02:40:37.590Z,99756.52
2023-03-03T02:50:43.246Z,99756.38
2023-03-03T03:00:48.906Z,99764.38
2023-03-03T03:10:54.680Z,99765.00
2023-03-03T03:21:06.294Z,99763.02
2023-03-03T03:31:12.843Z,99767.98
2023-03-03T03:41:18.646Z,99773.67
2023-03-03T03:51:24.245Z,99770.53
2023-03-03T04:01:30.111Z,99791.89
2023-03-03T04:11:35.967Z,99776.63
2023-03-03T04:21:42.090Z,99758.80
2023-03-03T04:31:47.932Z,99740.66
2023-03-03T04:41:53.544Z,99728.63
2023-03-03T04:51:59.471Z,99736.08
2023-03-03T05:02:05.635Z,99725.56
2023-03-03T05:12:11.372Z,99729.07
2023-03-03T05:22:17.201Z,99739.77
2023-03-03T05:32:23.043Z,99739.09
2023-03-03T05:42:28.817Z,99751.46
2023-03-03T05:52:34.455Z,99755.27
2023-03-03T06:02:40.141Z,99759.92
2023-03-03T06:12:46.211Z,99772.71
2023-03-03T06:22:51.967Z,99769.42
2023-03-03T06:32:57.713Z,99759.87
2023-03-03T06:43:04.355Z,99761.34
2023-03-03T06:53:15.295Z,99764.39
2023-03-03T07:03:24.868Z,99761.73
2023-03-03T07:13:33.785Z,99759.69
2023-03-03T07:23:42.780Z,99751.54
2023-03-03T07:33:49.391Z,99750.65
2023-03-03T07:43:56.814Z,99778.00
2023-03-03T07:54:25.323Z,99779.04
2023-03-03T08:04:39.374Z,99767.86
2023-03-03T08:14:45.398Z,99766.95
2023-03-03T08:24:51.642Z,99763.97
2023-03-03T08:34:57.319Z,99760.23
2023-03-03T08:45:03.073Z,99762.59
2023-03-03T08:55:09.291Z,99768.24
2023-03-03T09:05:15.641Z,99783.77
2023-03-03T09:15:25.523Z,99790.48
2023-03-03T09:25:35.731Z,99792.27
2023-03-03T09:35:42.594Z,99777.30
2023-03-03T09:45:59.145Z,99776.17
2023-03-03T09:56:14.983Z,99781.00
2023-03-03T10:06:26.697Z,99779.56
2023-03-03T10:17:05.951Z,99779.06
2023-03-03T10:27:30.143Z,99765.98
2023-03-03T10:37:47.572Z,99770.11
2023-03-03T10:48:09.097Z,99767.02
2023-03-03T10:58:39.812Z,99761.99
2023-03-03T11:08:50.601Z,99748.45
2023-03-03T11:19:23.488Z,99737.27
2023-03-03T11:29:42.742Z,99723.17
2023-03-03T11:39:50.965Z,99731.30
2023-03-03T11:50:02.003Z,99736.14
2023-03-03T12:00:24.355Z,99741.08
2023-03-03T12:10:39.140Z,99745.21
2023-03-03T12:20:52.801Z,99742.20
2023-03-03T12:31:18.078Z,99734.61
2023-03-03T12:41:28.433Z,99726.07
2023-03-03T12:51:43.727Z,99726.23
2023-03-03T13:02:01.741Z,99727.93
2023-03-03T13:12:22.713Z,99728.10
2023-03-03T13:22:36.974Z,99712.89
2023-03-03T13:32:50.865Z,99709.48
2023-03-03T13:43:03.829Z,99702.28
2023-03-03T13:53:29.426Z,99700.37
2023-03-03T14:03:55.470Z,99698.67
2023-03-03T14:14:13.630Z,99702.98
2023-03-03T14:24:21.502Z,99699.83
2023-03-03T14:34:38.553Z,99700.98
2023-03-03T14:44:59.298Z,99686.11
2023-03-03T14:55:32.761Z,99686.55
2023-03-03T15:05:49.608Z,99683.51
2023-03-03T15:16:05.726Z,99677.58
2023-03-03T15:26:20.593Z,99675.42
2023-03-03T15:36:35.770Z,99667.09
2023-03-03T15:46:54.655Z,99660.85
2023-03-03T15:57:04.538Z,99660.46
2023-03-03T16:07:23.823Z,99669.91
2023-03-03T16:17:40.458Z,99672.66
2023-03-03T16:27:53.829Z,99672.89
2023-03-03T16:38:02.732Z,99673.78
2023-03-03T16:48:27.030Z,99679.73
2023-03-03T16:58:43.527Z,99673.79
2023-03-03T17:09:31.861Z,99665.94
2023-03-03T17:19:50.323Z,99665.40
2023-03-03T17:30:12.323Z,99669.67
2023-03-03T17:40:44.598Z,99678.17
2023-03-03T17:51:07.253Z,99685.27
2023-03-03T18:01:23.285Z,99681.42
2023-03-03T18:11:49.170Z,99679.02
2023-03-03T18:22:00.056Z,99673.45
2023-03-03T18:32:20.776Z,99655.73
2023-03-03T18:42:41.427Z,99653.81
2023-03-03T18:53:20.581Z,99645.52
2023-03-03T19:03:34.849Z,99636.14
2023-03-03T19:13:51.975Z,99646.92
2023-03-03T19:24:00.185Z,99640.33
2023-03-03T19:34:12.377Z,99631.02
2023-03-03T19:44:32.564Z,99616.02
2023-03-03T19:55:00.178Z,99595.73
2023-03-03T20:05:21.125Z,99580.50
2023-03-03T20:15:39.175Z,99569.10
2023-03-03T20:25:47.955Z,99571.65
2023-03-03T20:36:05.276Z,99574.45
2023-03-03T20:46:19.835Z,99552.48
2023-03-03T20:56:33.950Z,99540.56
2023-03-03T21:06:42.827Z,99531.82
2023-03-03T21:16:49.529Z,99508.34
2023-03-03T21:26:57.713Z,99506.46
2023-03-03T21:37:04.977Z,99493.67
2023-03-03T21:47:12.713Z,99482.05
2023-03-03T21:57:18.774Z,99477.20
2023-03-03T22:07:24.565Z,99460.93
2023-03-03T22:17:30.311Z,99449.83
2023-03-03T22:27:36.048Z,99442.29
2023-03-03T22:37:41.765Z,99434.91
2023-03-03T22:47:47.415Z,99431.78
2023-03-03T22:57:53.026Z,99421.10
2023-03-03T23:07:58.630Z,99409.70
2023-03-03T23:18:04.413Z,99395.81
2023-03-03T23:28:10.367Z,99383.09
2023-03-03T23:38:17.768Z,99369.52
2023-03-03T23:48:23.649Z,99361.09
2023-03-03T23:58:29.365Z,99360.05
